sensor_id;sensor_type;location;lat;lon;timestamp;temperature;humidity
11569;DHT22;5840;46.894;15.542;2023-03-01T00:01:29;1.40;99.90
11569;DHT22;5840;46.894;15.542;2023-03-01T00:03:57;1.30;99.90
11569;DHT22;5840;46.894;15.542;2023-03-01T00:06:25;1.30;99.90
11569;DHT22;5840;46.894;15.542;2023-03-01T00:08:52;1.30;99.90
11569;DHT22;5840;46.894;15.542;2023-03-01T00:11:22;1.40;99.90
11569;DHT22;5840;46.894;15.542;2023-03-01T00:13:52;1.30;99.90
11569;DHT22;5840;46.894;15.542;2023-03-01T00:16:21;1.30;99.90
11569;DHT22;5840;46.894;15.542;2023-03-01T00:18:48;1.30;99.90
11569;DHT22;5840;46.894;15.542;2023-03-01T00:21:16;1.30;99.90
11569;DHT22;5840;46.894;15.542;2023-03-01T00:23:43;1.30;99.90
11569;DHT22;5840;46.894;15.542;2023-03-01T00:26:12;1.40;99.90
11569;DHT22;5840;46.894;15.542;2023-03-01T00:28:42;1.40;99.90
11569;DHT22;5840;46.894;15.542;2023-03-01T00:31:11;1.40;99.90
11569;DHT22;5840;46.894;15.542;2023-03-01T00:33:39;1.40;99.90
11569;DHT22;5840;46.894;15.542;2023-03-01T00:36:06;1.40;99.90
11569;DHT22;5840;46.894;15.542;2023-03-01T00:38:35;1.40;99.90
11569;DHT22;5840;46.894;15.542;2023-03-01T00:41:04;1.40;99.90
11569;DHT22;5840;46.894;15.542;2023-03-01T00:43:31;1.40;99.90
11569;DHT22;5840;46.894;15.542;2023-03-01T00:46:04;1.30;99.90
11569;DHT22;5840;46.894;15.542;2023-03-01T00:48:31;1.30;99.90
11569;DHT22;5840;46.894;15.542;2023-03-01T00:51:04;1.30;99.90
11569;DHT22;5840;46.894;15.542;2023-03-01T00:53:31;1.30;99.90
11569;DHT22;5840;46.894;15.542;2023-03-01T00:55:58;1.30;99.90
11569;DHT22;5840;46.894;15.542;2023-03-01T00:58:26;1.30;99.90
11569;DHT22;5840;46.894;15.542;2023-03-01T01:00:53;1.40;99.90
11569;DHT22;5840;46.894;15.542;2023-03-01T01:03:21;1.40;99.90
11569;DHT22;5840;46.894;15.542;2023-03-01T01:05:50;1.40;99.90
11569;DHT22;5840;46.894;15.542;2023-03-01T01:08:17;1.40;99.90
11569;DHT22;5840;46.894;15.542;2023-03-01T01:10:44;1.40;99.90
11569;DHT22;5840;46.894;15.542;2023-03-01T01:13:12;1.30;99.90
11569;DHT22;5840;46.894;15.542;2023-03-01T01:15:40;1.30;99.90
11569;DHT22;5840;46.894;15.542;2023-03-01T01:18:07;1.30;99.90
11569;DHT22;5840;46.894;15.542;2023-03-01T01:20:36;1.30;99.90
11569;DHT22;5840;46.894;15.542;2023-03-01T01:23:05;1.40;99.90
11569;DHT22;5840;46.894;15.542;2023-03-01T01:25:35;1.30;99.90
11569;DHT22;5840;46.894;15.542;2023-03-01T01:28:02;1.40;99.90
11569;DHT22;5840;46.894;15.542;2023-03-01T01:30:29;1.30;99.90
11569;DHT22;5840;46.894;15.542;2023-03-01T01:32:56;1.30;99.90
11569;DHT22;5840;46.894;15.542;2023-03-01T01:35:23;1.30;99.90
11569;DHT22;5840;46.894;15.542;2023-03-01T01:37:52;1.30;99.90
11569;DHT22;5840;46.894;15.542;2023-03-01T01:40:19;1.30;99.90
11569;DHT22;5840;46.894;15.542;2023-03-01T01:42:46;1.30;99.90
11569;DHT22;5840;46.894;15.542;2023-03-01T01:45:29;1.30;99.90
11569;DHT22;5840;46.894;15.542;2023-03-01T01:48:00;1.30;99.90
11569;DHT22;5840;46.894;15.542;2023-03-01T01:50:29;1.30;99.90
11569;DHT22;5840;46.894;15.542;2023-03-01T01:53:06;1.30;99.90
11569;DHT22;5840;46.894;15.542;2023-03-01T01:55:37;1.30;99.90
11569;DHT22;5840;46.894;15.542;2023-03-01T01:58:08;1.40;99.90
11569;DHT22;5840;46.894;15.542;2023-03-01T02:00:37;1.40;99.90
11569;DHT22;5840;46.894;15.542;2023-03-01T02:03:08;1.40;99.90
11569;DHT22;5840;46.894;15.542;2023-03-01T02:05:40;1.40;99.90
11569;DHT22;5840;46.894;15.542;2023-03-01T02:08:13;1.40;99.90
11569;DHT22;5840;46.894;15.542;2023-03-01T02:10:41;1.40;99.90
11569;DHT22;5840;46.894;15.542;2023-03-01T02:13:08;1.40;99.90
11569;DHT22;5840;46.894;15.542;2023-03-01T02:15:37;1.40;99.90
11569;DHT22;5840;46.894;15.542;2023-03-01T02:18:05;1.40;99.90
11569;DHT22;5840;46.894;15.542;2023-03-01T02:20:35;1.40;99.90
11569;DHT22;5840;46.894;15.542;2023-03-01T02:23:05;1.40;99.90
11569;DHT22;5840;46.894;15.542;2023-03-01T02:25:40;1.40;99.90
11569;DHT22;5840;46.894;15.542;2023-03-01T02:28:29;1.40;99.90
11569;DHT22;5840;46.894;15.542;2023-03-01T02:30:56;1.40;99.90
11569;DHT22;5840;46.894;15.542;2023-03-01T02:33:41;1.40;99.90
11569;DHT22;5840;46.894;15.542;2023-03-01T02:36:12;1.40;99.90
11569;DHT22;5840;46.894;15.542;2023-03-01T02:38:40;1.40;99.90
11569;DHT22;5840;46.894;15.542;2023-03-01T02:41:09;1.40;99.90
11569;DHT22;5840;46.894;15.542;2023-03-01T02:43:39;1.40;99.90
11569;DHT22;5840;46.894;15.542;2023-03-01T02:46:08;1.40;99.90
11569;DHT22;5840;46.894;15.542;2023-03-01T02:48:42;1.40;99.90
11569;DHT22;5840;46.894;15.542;2023-03-01T02:51:18;1.40;99.90
11569;DHT22;5840;46.894;15.542;2023-03-01T02:53:56;1.40;99.90
11569;DHT22;5840;46.894;15.542;2023-03-01T02:56:25;1.40;99.90
11569;DHT22;5840;46.894;15.542;2023-03-01T02:58:54;1.40;99.90
11569;DHT22;5840;46.894;15.542;2023-03-01T03:01:27;1.40;99.90
11569;DHT22;5840;46.894;15.542;2023-03-01T03:04:02;1.40;99.90
11569;DHT22;5840;46.894;15.542;2023-03-01T03:06:30;1.40;99.90
11569;DHT22;5840;46.894;15.542;2023-03-01T03:08:57;1.40;99.90
11569;DHT22;5840;46.894;15.542;2023-03-01T03:11:24;1.40;99.90
11569;DHT22;5840;46.894;15.542;2023-03-01T03:13:51;1.40;99.90
11569;DHT22;5840;46.894;15.542;2023-03-01T03:16:20;1.40;99.90
11569;DHT22;5840;46.894;15.542;2023-03-01T03:18:48;1.40;99.90
11569;DHT22;5840;46.894;15.542;2023-03-01T03:21:16;1.40;99.90
11569;DHT22;5840;46.894;15.542;2023-03-01T03:23:43;1.40;99.90
11569;DHT22;5840;46.894;15.542;2023-03-01T03:26:10;1.40;99.90
11569;DHT22;5840;46.894;15.542;2023-03-01T03:28:40;1.50;99.90
11569;DHT22;5840;46.894;15.542;2023-03-01T03:31:08;1.50;99.90
11569;DHT22;5840;46.894;15.542;2023-03-01T03:33:36;1.50;99.90
11569;DHT22;5840;46.894;15.542;2023-03-01T03:36:04;1.50;99.90
11569;DHT22;5840;46.894;15.542;2023-03-01T03:38:31;1.50;99.90
11569;DHT22;5840;46.894;15.542;2023-03-01T03:41:03;1.40;99.90
11569;DHT22;5840;46.894;15.542;2023-03-01T03:43:34;1.40;99.90
11569;DHT22;5840;46.894;15.542;2023-03-01T03:46:01;1.40;99.90
11569;DHT22;5840;46.894;15.542;2023-03-01T03:48:31;1.40;99.90
11569;DHT22;5840;46.894;15.542;2023-03-01T03:51:00;1.40;99.90
11569;DHT22;5840;46.894;15.542;2023-03-01T03:53:31;1.40;99.90
11569;DHT22;5840;46.894;15.542;2023-03-01T03:55:58;1.40;99.90
11569;DHT22;5840;46.894;15.542;2023-03-01T03:58:26;1.30;99.90
11569;DHT22;5840;46.894;15.542;2023-03-01T04:00:54;1.30;99.90
11569;DHT22;5840;46.894;15.542;2023-03-01T04:03:23;1.30;99.90
11569;DHT22;5840;46.894;15.542;2023-03-01T04:05:50;1.30;99.90
11569;DHT22;5840;46.894;15.542;2023-03-01T04:08:20;1.30;99.90
11569;DHT22;5840;46.894;15.542;2023-03-01T04:10:48;1.30;99.90
11569;DHT22;5840;46.894;15.542;2023-03-01T04:13:17;1.30;99.90
11569;DHT22;5840;46.894;15.542;2023-03-01T04:15:45;1.30;99.90
11569;DHT22;5840;46.894;15.542;2023-03-01T04:18:13;1.20;99.90
11569;DHT22;5840;46.894;15.542;2023-03-01T04:20:41;1.20;99.90
11569;DHT22;5840;46.894;15.542;2023-03-01T04:23:11;1.20;99.90
11569;DHT22;5840;46.894;15.542;2023-03-01T04:25:42;1.20;99.90
11569;DHT22;5840;46.894;15.542;2023-03-01T04:28:10;1.20;99.90
11569;DHT22;5840;46.894;15.542;2023-03-01T04:30:38;1.20;99.90
11569;DHT22;5840;46.894;15.542;2023-03-01T04:33:06;1.20;99.90
11569;DHT22;5840;46.894;15.542;2023-03-01T04:35:35;1.20;99.90
11569;DHT22;5840;46.894;15.542;2023-03-01T04:38:02;1.20;99.90
11569;DHT22;5840;46.894;15.542;2023-03-01T04:40:30;1.20;99.90
11569;DHT22;5840;46.894;15.542;2023-03-01T04:42:58;1.20;99.90
11569;DHT22;5840;46.894;15.542;2023-03-01T04:45:25;1.20;99.90
11569;DHT22;5840;46.894;15.542;2023-03-01T04:47:53;1.20;99.90
11569;DHT22;5840;46.894;15.542;2023-03-01T04:50:20;1.20;99.90
11569;DHT22;5840;46.894;15.542;2023-03-01T04:52:49;1.20;99.90
11569;DHT22;5840;46.894;15.542;2023-03-01T04:55:16;1.20;99.90
11569;DHT22;5840;46.894;15.542;2023-03-01T04:57:43;1.20;99.90
11569;DHT22;5840;46.894;15.542;2023-03-01T05:00:13;1.10;99.90
11569;DHT22;5840;46.894;15.542;2023-03-01T05:02:50;1.10;99.90
11569;DHT22;5840;46.894;15.542;2023-03-01T05:05:24;1.10;99.90
11569;DHT22;5840;46.894;15.542;2023-03-01T05:07:53;1.10;99.90
11569;DHT22;5840;46.894;15.542;2023-03-01T05:10:20;1.10;99.90
11569;DHT22;5840;46.894;15.542;2023-03-01T05:12:47;1.10;99.90
11569;DHT22;5840;46.894;15.542;2023-03-01T05:15:15;1.10;99.90
11569;DHT22;5840;46.894;15.542;2023-03-01T05:17:42;1.10;99.90
11569;DHT22;5840;46.894;15.542;2023-03-01T05:20:10;1.10;99.90
11569;DHT22;5840;46.894;15.542;2023-03-01T05:22:37;1.10;99.90
11569;DHT22;5840;46.894;15.542;2023-03-01T05:25:05;1.10;99.90
11569;DHT22;5840;46.894;15.542;2023-03-01T05:27:33;1.20;99.90
11569;DHT22;5840;46.894;15.542;2023-03-01T05:30:00;1.20;99.90
11569;DHT22;5840;46.894;15.542;2023-03-01T05:32:41;1.20;99.90
11569;DHT22;5840;46.894;15.542;2023-03-01T05:35:10;1.20;99.90
11569;DHT22;5840;46.894;15.542;2023-03-01T05:37:39;1.30;99.90
11569;DHT22;5840;46.894;15.542;2023-03-01T05:40:08;1.30;99.90
11569;DHT22;5840;46.894;15.542;2023-03-01T05:42:42;1.30;99.90
11569;DHT22;5840;46.894;15.542;2023-03-01T05:45:10;1.30;99.90
11569;DHT22;5840;46.894;15.542;2023-03-01T05:47:39;1.30;99.90
11569;DHT22;5840;46.894;15.542;2023-03-01T05:50:11;1.30;99.90
11569;DHT22;5840;46.894;15.542;2023-03-01T05:52:38;1.30;99.90
11569;DHT22;5840;46.894;15.542;2023-03-01T05:55:07;1.30;99.90
11569;DHT22;5840;46.894;15.542;2023-03-01T05:57:34;1.20;99.90
11569;DHT22;5840;46.894;15.542;2023-03-01T06:00:01;1.30;99.90
11569;DHT22;5840;46.894;15.542;2023-03-01T06:02:28;1.30;99.90
11569;DHT22;5840;46.894;15.542;2023-03-01T06:04:57;1.30;99.90
11569;DHT22;5840;46.894;15.542;2023-03-01T06:07:24;1.30;99.90
11569;DHT22;5840;46.894;15.542;2023-03-01T06:09:51;1.20;99.90
11569;DHT22;5840;46.894;15.542;2023-03-01T06:12:18;1.20;99.90
11569;DHT22;5840;46.894;15.542;2023-03-01T06:14:45;1.20;99.90
11569;DHT22;5840;46.894;15.542;2023-03-01T06:17:13;1.20;99.90
11569;DHT22;5840;46.894;15.542;2023-03-01T06:19:40;1.20;99.90
11569;DHT22;5840;46.894;15.542;2023-03-01T06:22:08;1.30;99.90
11569;DHT22;5840;46.894;15.542;2023-03-01T06:24:35;1.30;99.90
11569;DHT22;5840;46.894;15.542;2023-03-01T06:27:02;1.30;99.90
11569;DHT22;5840;46.894;15.542;2023-03-01T06:29:30;1.30;99.90
11569;DHT22;5840;46.894;15.542;2023-03-01T06:31:57;1.30;99.90
11569;DHT22;5840;46.894;15.542;2023-03-01T06:34:24;1.30;99.90
11569;DHT22;5840;46.894;15.542;2023-03-01T06:36:51;1.40;99.90
11569;DHT22;5840;46.894;15.542;2023-03-01T06:39:19;1.40;99.90
11569;DHT22;5840;46.894;15.542;2023-03-01T06:41:46;1.40;99.90
11569;DHT22;5840;46.894;15.542;2023-03-01T06:44:13;1.40;99.90
11569;DHT22;5840;46.894;15.542;2023-03-01T06:46:40;1.40;99.90
11569;DHT22;5840;46.894;15.542;2023-03-01T06:49:07;1.40;99.90
11569;DHT22;5840;46.894;15.542;2023-03-01T06:51:35;1.40;99.90
11569;DHT22;5840;46.894;15.542;2023-03-01T06:54:03;1.40;99.90
11569;DHT22;5840;46.894;15.542;2023-03-01T06:56:32;1.40;99.90
11569;DHT22;5840;46.894;15.542;2023-03-01T06:59:00;1.40;99.90
11569;DHT22;5840;46.894;15.542;2023-03-01T07:01:28;1.40;99.90
11569;DHT22;5840;46.894;15.542;2023-03-01T07:03:55;1.40;99.90
11569;DHT22;5840;46.894;15.542;2023-03-01T07:06:23;1.40;99.90
11569;DHT22;5840;46.894;15.542;2023-03-01T07:08:50;1.50;99.90
11569;DHT22;5840;46.894;15.542;2023-03-01T07:11:17;1.50;99.90
11569;DHT22;5840;46.894;15.542;2023-03-01T07:13:45;1.50;99.90
11569;DHT22;5840;46.894;15.542;2023-03-01T07:16:12;1.50;99.90
11569;DHT22;5840;46.894;15.542;2023-03-01T07:18:39;1.50;99.90
11569;DHT22;5840;46.894;15.542;2023-03-01T07:21:08;1.60;99.90
11569;DHT22;5840;46.894;15.542;2023-03-01T07:23:35;1.60;99.90
11569;DHT22;5840;46.894;15.542;2023-03-01T07:26:02;1.60;99.90
11569;DHT22;5840;46.894;15.542;2023-03-01T07:28:30;1.60;99.90
11569;DHT22;5840;46.894;15.542;2023-03-01T07:31:03;1.60;99.90
11569;DHT22;5840;46.894;15.542;2023-03-01T07:33:30;1.60;99.90
11569;DHT22;5840;46.894;15.542;2023-03-01T07:35:58;1.60;99.90
11569;DHT22;5840;46.894;15.542;2023-03-01T07:38:25;1.60;99.90
11569;DHT22;5840;46.894;15.542;2023-03-01T07:40:52;1.60;99.90
11569;DHT22;5840;46.894;15.542;2023-03-01T07:43:19;1.60;99.90
11569;DHT22;5840;46.894;15.542;2023-03-01T07:45:47;1.70;99.90
11569;DHT22;5840;46.894;15.542;2023-03-01T07:48:15;1.70;99.90
11569;DHT22;5840;46.894;15.542;2023-03-01T07:50:42;1.70;99.90
11569;DHT22;5840;46.894;15.542;2023-03-01T07:53:09;1.70;99.90
11569;DHT22;5840;46.894;15.542;2023-03-01T07:55:37;1.70;99.90
11569;DHT22;5840;46.894;15.542;2023-03-01T07:58:05;1.70;99.90
11569;DHT22;5840;46.894;15.542;2023-03-01T08:00:32;1.80;99.90
11569;DHT22;5840;46.894;15.542;2023-03-01T08:02:59;1.80;99.90
11569;DHT22;5840;46.894;15.542;2023-03-01T08:05:29;1.90;99.90
11569;DHT22;5840;46.894;15.542;2023-03-01T08:07:56;1.90;99.90
11569;DHT22;5840;46.894;15.542;2023-03-01T08:10:23;2.00;99.90
11569;DHT22;5840;46.894;15.542;2023-03-01T08:12:51;2.00;99.90
11569;DHT22;5840;46.894;15.542;2023-03-01T08:15:19;2.00;99.90
11569;DHT22;5840;46.894;15.542;2023-03-01T08:17:48;2.00;99.90
11569;DHT22;5840;46.894;15.542;2023-03-01T08:20:16;2.10;99.90
11569;DHT22;5840;46.894;15.542;2023-03-01T08:22:44;2.20;99.90
11569;DHT22;5840;46.894;15.542;2023-03-01T08:25:11;2.20;99.90
11569;DHT22;5840;46.894;15.542;2023-03-01T08:27:38;2.30;99.90
11569;DHT22;5840;46.894;15.542;2023-03-01T08:30:06;2.40;99.90
11569;DHT22;5840;46.894;15.542;2023-03-01T08:32:36;2.40;99.90
11569;DHT22;5840;46.894;15.542;2023-03-01T08:35:04;2.40;99.90
11569;DHT22;5840;46.894;15.542;2023-03-01T08:37:31;2.40;99.90
11569;DHT22;5840;46.894;15.542;2023-03-01T08:40:00;2.50;99.90
11569;DHT22;5840;46.894;15.542;2023-03-01T08:42:29;2.50;99.90
11569;DHT22;5840;46.894;15.542;2023-03-01T08:44:56;2.60;99.90
11569;DHT22;5840;46.894;15.542;2023-03-01T08:47:23;2.60;99.90
11569;DHT22;5840;46.894;15.542;2023-03-01T08:49:50;2.60;99.90
11569;DHT22;5840;46.894;15.542;2023-03-01T08:52:18;2.80;99.90
11569;DHT22;5840;46.894;15.542;2023-03-01T08:54:47;2.80;99.90
11569;DHT22;5840;46.894;15.542;2023-03-01T08:57:15;2.90;99.90
11569;DHT22;5840;46.894;15.542;2023-03-01T08:59:42;3.00;99.90
11569;DHT22;5840;46.894;15.542;2023-03-01T09:02:13;3.00;99.90
11569;DHT22;5840;46.894;15.542;2023-03-01T09:04:40;3.10;99.90
11569;DHT22;5840;46.894;15.542;2023-03-01T09:07:07;3.10;99.90
11569;DHT22;5840;46.894;15.542;2023-03-01T09:09:35;3.10;99.90
11569;DHT22;5840;46.894;15.542;2023-03-01T09:12:02;3.20;99.90
11569;DHT22;5840;46.894;15.542;2023-03-01T09:14:31;3.20;99.90
11569;DHT22;5840;46.894;15.542;2023-03-01T09:16:58;3.30;99.90
11569;DHT22;5840;46.894;15.542;2023-03-01T09:19:28;3.40;99.90
11569;DHT22;5840;46.894;15.542;2023-03-01T09:21:55;3.50;99.90
11569;DHT22;5840;46.894;15.542;2023-03-01T09:24:24;3.50;99.90
11569;DHT22;5840;46.894;15.542;2023-03-01T09:26:54;3.50;99.90
11569;DHT22;5840;46.894;15.542;2023-03-01T09:29:21;3.60;99.90
11569;DHT22;5840;46.894;15.542;2023-03-01T09:31:50;3.60;99.90
11569;DHT22;5840;46.894;15.542;2023-03-01T09:34:20;3.60;99.90
11569;DHT22;5840;46.894;15.542;2023-03-01T09:36:49;3.70;99.90
11569;DHT22;5840;46.894;15.542;2023-03-01T09:39:16;3.70;99.90
11569;DHT22;5840;46.894;15.542;2023-03-01T09:41:47;3.70;99.90
11569;DHT22;5840;46.894;15.542;2023-03-01T09:44:27;3.70;99.90
11569;DHT22;5840;46.894;15.542;2023-03-01T09:46:58;3.70;99.90
11569;DHT22;5840;46.894;15.542;2023-03-01T09:49:28;3.70;99.90
11569;DHT22;5840;46.894;15.542;2023-03-01T09:51:59;3.70;99.90
11569;DHT22;5840;46.894;15.542;2023-03-01T09:54:26;3.70;99.90
11569;DHT22;5840;46.894;15.542;2023-03-01T09:57:06;3.80;99.90
11569;DHT22;5840;46.894;15.542;2023-03-01T09:59:47;3.80;99.90
11569;DHT22;5840;46.894;15.542;2023-03-01T10:02:26;3.80;99.90
11569;DHT22;5840;46.894;15.542;2023-03-01T10:04:57;3.80;99.90
11569;DHT22;5840;46.894;15.542;2023-03-01T10:07:31;3.90;99.90
11569;DHT22;5840;46.894;15.542;2023-03-01T10:09:59;3.90;99.90
11569;DHT22;5840;46.894;15.542;2023-03-01T10:12:34;3.90;99.90
11569;DHT22;5840;46.894;15.542;2023-03-01T10:15:06;3.90;99.90
11569;DHT22;5840;46.894;15.542;2023-03-01T10:17:39;3.90;99.90
11569;DHT22;5840;46.894;15.542;2023-03-01T10:20:21;3.90;99.90
11569;DHT22;5840;46.894;15.542;2023-03-01T10:22:49;3.90;99.90
11569;DHT22;5840;46.894;15.542;2023-03-01T10:25:29;3.90;99.90
11569;DHT22;5840;46.894;15.542;2023-03-01T10:28:08;3.90;99.90
11569;DHT22;5840;46.894;15.542;2023-03-01T10:30:39;3.90;99.90
11569;DHT22;5840;46.894;15.542;2023-03-01T10:33:15;3.90;99.90
11569;DHT22;5840;46.894;15.542;2023-03-01T10:35:43;3.90;99.90
11569;DHT22;5840;46.894;15.542;2023-03-01T10:38:11;3.90;99.90
11569;DHT22;5840;46.894;15.542;2023-03-01T10:40:51;3.80;99.90
11569;DHT22;5840;46.894;15.542;2023-03-01T10:43:19;3.80;99.90
11569;DHT22;5840;46.894;15.542;2023-03-01T10:45:47;3.80;99.90
11569;DHT22;5840;46.894;15.542;2023-03-01T10:48:17;3.90;99.90
11569;DHT22;5840;46.894;15.542;2023-03-01T10:50:46;3.90;99.90
11569;DHT22;5840;46.894;15.542;2023-03-01T10:53:32;3.80;99.90
11569;DHT22;5840;46.894;15.542;2023-03-01T10:56:02;3.80;99.90
11569;DHT22;5840;46.894;15.542;2023-03-01T10:58:31;3.80;99.90
11569;DHT22;5840;46.894;15.542;2023-03-01T11:01:00;3.80;99.90
11569;DHT22;5840;46.894;15.542;2023-03-01T11:03:29;3.90;99.90
11569;DHT22;5840;46.894;15.542;2023-03-01T11:06:00;3.90;99.90
11569;DHT22;5840;46.894;15.542;2023-03-01T11:08:33;3.90;99.90
11569;DHT22;5840;46.894;15.542;2023-03-01T11:11:19;4.00;99.90
11569;DHT22;5840;46.894;15.542;2023-03-01T11:13:55;4.00;99.90
11569;DHT22;5840;46.894;15.542;2023-03-01T11:16:26;4.10;99.90
11569;DHT22;5840;46.894;15.542;2023-03-01T11:19:00;4.10;99.90
11569;DHT22;5840;46.894;15.542;2023-03-01T11:21:29;4.10;99.90
11569;DHT22;5840;46.894;15.542;2023-03-01T11:23:59;4.10;99.90
11569;DHT22;5840;46.894;15.542;2023-03-01T11:26:28;4.20;99.90
11569;DHT22;5840;46.894;15.542;2023-03-01T11:29:00;4.20;99.90
11569;DHT22;5840;46.894;15.542;2023-03-01T11:31:30;4.20;99.90
11569;DHT22;5840;46.894;15.542;2023-03-01T11:34:03;4.30;99.90
11569;DHT22;5840;46.894;15.542;2023-03-01T11:36:35;4.30;99.90
11569;DHT22;5840;46.894;15.542;2023-03-01T11:39:17;4.30;99.90
11569;DHT22;5840;46.894;15.542;2023-03-01T11:41:49;4.30;99.90
11569;DHT22;5840;46.894;15.542;2023-03-01T11:44:23;4.30;99.90
11569;DHT22;5840;46.894;15.542;2023-03-01T11:47:08;4.30;99.90
11569;DHT22;5840;46.894;15.542;2023-03-01T11:52:43;4.30;99.90
11569;DHT22;5840;46.894;15.542;2023-03-01T11:55:23;4.30;99.90
11569;DHT22;5840;46.894;15.542;2023-03-01T12:01:00;4.40;99.90
11569;DHT22;5840;46.894;15.542;2023-03-01T12:03:44;4.50;99.90
11569;DHT22;5840;46.894;15.542;2023-03-01T12:06:35;4.70;99.90
11569;DHT22;5840;46.894;15.542;2023-03-01T12:09:31;4.80;99.90
11569;DHT22;5840;46.894;15.542;2023-03-01T12:12:24;4.90;99.90
11569;DHT22;5840;46.894;15.542;2023-03-01T12:15:05;5.10;99.90
11569;DHT22;5840;46.894;15.542;2023-03-01T12:17:47;5.10;99.90
11569;DHT22;5840;46.894;15.542;2023-03-01T12:20:25;5.20;99.90
11569;DHT22;5840;46.894;15.542;2023-03-01T12:26:10;5.00;99.90
11569;DHT22;5840;46.894;15.542;2023-03-01T12:28:51;5.00;99.90
11569;DHT22;5840;46.894;15.542;2023-03-01T12:31:39;4.80;99.90
11569;DHT22;5840;46.894;15.542;2023-03-01T12:34:21;4.80;99.90
11569;DHT22;5840;46.894;15.542;2023-03-01T12:40:02;5.00;99.90
11569;DHT22;5840;46.894;15.542;2023-03-01T12:42:39;5.00;99.90
11569;DHT22;5840;46.894;15.542;2023-03-01T12:45:34;5.10;99.90
11569;DHT22;5840;46.894;15.542;2023-03-01T12:48:24;5.00;99.90
11569;DHT22;5840;46.894;15.542;2023-03-01T12:50:59;5.00;99.90
11569;DHT22;5840;46.894;15.542;2023-03-01T12:53:29;5.00;99.90
11569;DHT22;5840;46.894;15.542;2023-03-01T12:56:01;5.00;99.90
11569;DHT22;5840;46.894;15.542;2023-03-01T12:58:32;5.00;99.90
11569;DHT22;5840;46.894;15.542;2023-03-01T13:01:16;5.00;99.90
11569;DHT22;5840;46.894;15.542;2023-03-01T13:04:12;5.10;99.90
11569;DHT22;5840;46.894;15.542;2023-03-01T13:06:45;5.10;99.90
11569;DHT22;5840;46.894;15.542;2023-03-01T13:09:19;5.20;99.90
11569;DHT22;5840;46.894;15.542;2023-03-01T13:11:50;5.20;99.90
11569;DHT22;5840;46.894;15.542;2023-03-01T13:14:44;5.30;99.90
11569;DHT22;5840;46.894;15.542;2023-03-01T13:17:39;5.40;99.90
11569;DHT22;5840;46.894;15.542;2023-03-01T13:20:15;5.40;99.90
11569;DHT22;5840;46.894;15.542;2023-03-01T13:22:45;5.30;99.90
11569;DHT22;5840;46.894;15.542;2023-03-01T13:25:15;5.30;99.90
11569;DHT22;5840;46.894;15.542;2023-03-01T13:27:43;5.30;99.90
11569;DHT22;5840;46.894;15.542;2023-03-01T13:30:40;5.30;99.90
11569;DHT22;5840;46.894;15.542;2023-03-01T13:33:44;5.30;99.90
11569;DHT22;5840;46.894;15.542;2023-03-01T13:36:47;5.30;99.90
11569;DHT22;5840;46.894;15.542;2023-03-01T13:39:29;5.30;99.90
11569;DHT22;5840;46.894;15.542;2023-03-01T13:41:58;5.30;99.90
11569;DHT22;5840;46.894;15.542;2023-03-01T13:44:30;5.20;99.90
11569;DHT22;5840;46.894;15.542;2023-03-01T13:47:08;5.20;99.90
11569;DHT22;5840;46.894;15.542;2023-03-01T13:49:46;5.20;99.90
11569;DHT22;5840;46.894;15.542;2023-03-01T13:52:37;5.20;99.90
11569;DHT22;5840;46.894;15.542;2023-03-01T13:55:16;5.20;99.90
11569;DHT22;5840;46.894;15.542;2023-03-01T13:57:46;5.20;99.90
11569;DHT22;5840;46.894;15.542;2023-03-01T14:00:27;5.20;99.90
11569;DHT22;5840;46.894;15.542;2023-03-01T14:03:10;5.20;99.90
11569;DHT22;5840;46.894;15.542;2023-03-01T14:05:38;5.20;99.90
11569;DHT22;5840;46.894;15.542;2023-03-01T14:08:18;5.20;99.90
11569;DHT22;5840;46.894;15.542;2023-03-01T14:10:58;5.20;99.90
11569;DHT22;5840;46.894;15.542;2023-03-01T14:13:37;5.20;99.90
11569;DHT22;5840;46.894;15.542;2023-03-01T14:16:19;5.20;99.90
11569;DHT22;5840;46.894;15.542;2023-03-01T14:18:56;5.20;99.90
11569;DHT22;5840;46.894;15.542;2023-03-01T14:21:26;5.20;99.90
11569;DHT22;5840;46.894;15.542;2023-03-01T14:23:53;5.20;99.90
11569;DHT22;5840;46.894;15.542;2023-03-01T14:26:21;5.20;99.90
11569;DHT22;5840;46.894;15.542;2023-03-01T14:28:49;5.20;99.90
11569;DHT22;5840;46.894;15.542;2023-03-01T14:31:32;5.10;99.90
11569;DHT22;5840;46.894;15.542;2023-03-01T14:34:03;5.10;99.90
11569;DHT22;5840;46.894;15.542;2023-03-01T14:36:32;5.10;99.90
11569;DHT22;5840;46.894;15.542;2023-03-01T14:39:00;5.00;99.90
11569;DHT22;5840;46.894;15.542;2023-03-01T14:41:33;5.00;99.90
11569;DHT22;5840;46.894;15.542;2023-03-01T14:44:03;5.00;99.90
11569;DHT22;5840;46.894;15.542;2023-03-01T14:46:33;5.00;99.90
11569;DHT22;5840;46.894;15.542;2023-03-01T14:49:05;5.00;99.90
11569;DHT22;5840;46.894;15.542;2023-03-01T14:51:36;5.00;99.90
11569;DHT22;5840;46.894;15.542;2023-03-01T14:54:11;5.00;99.90
11569;DHT22;5840;46.894;15.542;2023-03-01T14:56:44;5.00;99.90
11569;DHT22;5840;46.894;15.542;2023-03-01T14:59:11;4.90;99.90
11569;DHT22;5840;46.894;15.542;2023-03-01T15:01:39;4.90;99.90
11569;DHT22;5840;46.894;15.542;2023-03-01T15:04:11;4.90;99.90
11569;DHT22;5840;46.894;15.542;2023-03-01T15:06:39;4.90;99.90
11569;DHT22;5840;46.894;15.542;2023-03-01T15:09:11;4.90;99.90
11569;DHT22;5840;46.894;15.542;2023-03-01T15:11:38;4.90;99.90
11569;DHT22;5840;46.894;15.542;2023-03-01T15:14:39;4.90;99.90
11569;DHT22;5840;46.894;15.542;2023-03-01T15:17:25;4.90;99.90
11569;DHT22;5840;46.894;15.542;2023-03-01T15:19:55;4.90;99.90
11569;DHT22;5840;46.894;15.542;2023-03-01T15:22:23;4.90;99.90
11569;DHT22;5840;46.894;15.542;2023-03-01T15:24:51;4.90;99.90
11569;DHT22;5840;46.894;15.542;2023-03-01T15:27:20;4.90;99.90
11569;DHT22;5840;46.894;15.542;2023-03-01T15:29:49;4.80;99.90
11569;DHT22;5840;46.894;15.542;2023-03-01T15:32:26;4.80;99.90
11569;DHT22;5840;46.894;15.542;2023-03-01T15:34:55;4.80;99.90
11569;DHT22;5840;46.894;15.542;2023-03-01T15:37:43;4.70;99.90
11569;DHT22;5840;46.894;15.542;2023-03-01T15:40:19;4.60;99.90
11569;DHT22;5840;46.894;15.542;2023-03-01T15:42:46;4.60;99.90
11569;DHT22;5840;46.894;15.542;2023-03-01T15:45:23;4.60;99.90
11569;DHT22;5840;46.894;15.542;2023-03-01T15:47:53;4.50;99.90
11569;DHT22;5840;46.894;15.542;2023-03-01T15:50:27;4.50;99.90
11569;DHT22;5840;46.894;15.542;2023-03-01T15:52:55;4.40;99.90
11569;DHT22;5840;46.894;15.542;2023-03-01T15:55:25;4.40;99.90
11569;DHT22;5840;46.894;15.542;2023-03-01T15:57:59;4.40;99.90
11569;DHT22;5840;46.894;15.542;2023-03-01T16:00:28;4.40;99.90
11569;DHT22;5840;46.894;15.542;2023-03-01T16:02:55;4.30;99.90
11569;DHT22;5840;46.894;15.542;2023-03-01T16:05:26;4.30;99.90
11569;DHT22;5840;46.894;15.542;2023-03-01T16:07:53;4.30;99.90
11569;DHT22;5840;46.894;15.542;2023-03-01T16:10:21;4.20;99.90
11569;DHT22;5840;46.894;15.542;2023-03-01T16:12:48;4.20;99.90
11569;DHT22;5840;46.894;15.542;2023-03-01T16:15:19;4.20;99.90
11569;DHT22;5840;46.894;15.542;2023-03-01T16:17:47;4.20;99.90
11569;DHT22;5840;46.894;15.542;2023-03-01T16:20:14;4.20;99.90
11569;DHT22;5840;46.894;15.542;2023-03-01T16:22:44;4.20;99.90